createdAt,value
2018-07-26T00:01:58.970Z,6.87
2018-07-26T00:04:33.883Z,6.33
2018-07-26T00:07:06.927Z,7.37
2018-07-26T00:09:39.870Z,6.23
2018-07-26T00:12:13.406Z,7.10
2018-07-26T00:14:46.209Z,5.23
2018-07-26T00:17:19.092Z,6.23
2018-07-26T00:19:53.368Z,7.00
2018-07-26T00:22:27.158Z,7.37
2018-07-26T00:25:00.077Z,7.77
2018-07-26T00:27:33.311Z,8.13
2018-07-26T00:30:08.200Z,10.10
2018-07-26T00:32:41.104Z,8.57
2018-07-26T00:35:14.381Z,7.90
2018-07-26T00:37:51.460Z,8.37
2018-07-26T00:40:25.973Z,8.45
2018-07-26T00:43:02.099Z,8.80
2018-07-26T00:45:37.928Z,9.25
2018-07-26T00:48:11.770Z,7.93
2018-07-26T00:50:45.138Z,8.90
2018-07-26T00:53:21.107Z,8.60
2018-07-26T00:55:57.196Z,10.17
2018-07-26T00:58:30.576Z,10.27
2018-07-26T01:01:05.375Z,8.82
2018-07-26T01:03:38.452Z,8.17
2018-07-26T01:06:12.534Z,8.60
2018-07-26T01:08:45.893Z,9.53
2018-07-26T01:11:18.868Z,8.10
2018-07-26T01:13:53.509Z,12.03
2018-07-26T01:16:52.196Z,8.70
2018-07-26T01:19:30.100Z,10.67
2018-07-26T01:22:05.535Z,11.40
2018-07-26T01:24:38.462Z,9.85
2018-07-26T01:27:14.704Z,8.97
2018-07-26T01:29:49.051Z,10.43
2018-07-26T01:32:25.239Z,11.57
2018-07-26T01:34:58.290Z,10.27
2018-07-26T01:37:33.173Z,9.67
2018-07-26T01:40:07.090Z,10.60
2018-07-26T01:43:09.198Z,9.57
2018-07-26T01:45:43.077Z,10.27
2018-07-26T01:48:16.278Z,10.03
2018-07-26T01:50:50.424Z,9.97
2018-07-26T01:53:23.880Z,9.63
2018-07-26T01:55:58.197Z,11.03
2018-07-26T01:58:32.360Z,10.23
2018-07-26T02:01:07.810Z,10.43
2018-07-26T02:03:42.357Z,11.80
2018-07-26T02:06:15.903Z,10.43
2018-07-26T02:08:48.622Z,10.20
2018-07-26T02:11:21.502Z,10.23
2018-07-26T02:13:58.157Z,10.93
2018-07-26T02:16:31.074Z,11.60
2018-07-26T02:19:06.804Z,10.67
2018-07-26T02:21:40.427Z,10.10
2018-07-26T02:24:13.353Z,10.33
2018-07-26T02:26:46.665Z,10.77
2018-07-26T02:29:20.753Z,10.43
2018-07-26T02:31:55.172Z,11.97
2018-07-26T02:34:27.937Z,10.97
2018-07-26T02:37:01.435Z,11.33
2018-07-26T02:39:34.206Z,10.90
2018-07-26T02:42:08.426Z,10.03
2018-07-26T02:44:41.715Z,12.27
2018-07-26T02:47:14.528Z,9.37
2018-07-26T02:49:47.257Z,13.37
2018-07-26T02:52:20.537Z,9.43
2018-07-26T02:54:53.251Z,10.33
2018-07-26T02:57:26.353Z,8.57
2018-07-26T02:59:59.936Z,10.70
2018-07-26T03:02:34.177Z,10.37
2018-07-26T03:05:09.367Z,10.60
2018-07-26T03:07:42.776Z,10.83
2018-07-26T03:10:15.729Z,11.20
2018-07-26T03:12:49.130Z,11.27
2018-07-26T03:15:23.550Z,11.77
2018-07-26T03:17:58.352Z,13.93
2018-07-26T03:20:31.471Z,13.90
2018-07-26T03:23:09.750Z,14.63
2018-07-26T03:25:44.471Z,14.00
2018-07-26T03:28:17.479Z,11.83
2018-07-26T03:30:51.107Z,12.10
2018-07-26T03:33:27.346Z,11.67
2018-07-26T03:36:00.121Z,12.70
2018-07-26T03:38:32.884Z,14.30
2018-07-26T03:41:06.128Z,13.10
2018-07-26T03:43:40.441Z,13.52
2018-07-26T03:46:13.333Z,13.70
2018-07-26T03:48:50.682Z,12.87
2018-07-26T03:51:23.558Z,11.10
2018-07-26T03:53:57.557Z,13.20
2018-07-26T03:56:31.913Z,11.83
2018-07-26T03:59:05.064Z,11.70
2018-07-26T04:01:39.931Z,14.23
2018-07-26T04:04:13.241Z,14.03
2018-07-26T04:06:46.637Z,15.77
2018-07-26T04:09:19.622Z,13.77
2018-07-26T04:11:54.240Z,12.70
2018-07-26T04:14:28.266Z,12.17
2018-07-26T04:17:01.369Z,12.77
2018-07-26T04:19:36.620Z,13.17
2018-07-26T04:22:09.460Z,12.93
2018-07-26T04:24:43.849Z,12.53
2018-07-26T04:27:18.157Z,13.73
2018-07-26T04:29:51.635Z,14.57
2018-07-26T04:32:24.581Z,13.00
2018-07-26T04:34:57.435Z,14.37
2018-07-26T04:37:30.687Z,12.37
2018-07-26T04:40:03.761Z,11.93
2018-07-26T04:42:36.671Z,14.18
2018-07-26T04:45:10.057Z,12.63
2018-07-26T04:47:44.080Z,11.43
2018-07-26T04:50:20.243Z,12.30
2018-07-26T04:52:53.880Z,12.57
2018-07-26T04:55:26.696Z,12.40
2018-07-26T04:58:02.376Z,12.70
2018-07-26T05:00:37.809Z,11.97
2018-07-26T05:03:11.995Z,12.57
2018-07-26T05:05:44.757Z,11.43
2018-07-26T05:08:18.779Z,10.57
2018-07-26T05:10:52.252Z,11.27
2018-07-26T05:13:25.157Z,12.10
2018-07-26T05:15:59.276Z,10.87
2018-07-26T05:18:33.687Z,10.80
2018-07-26T05:21:07.227Z,12.43
2018-07-26T05:23:40.813Z,11.00
2018-07-26T05:26:14.820Z,10.07
2018-07-26T05:28:49.495Z,10.97
2018-07-26T05:31:27.987Z,11.03
2018-07-26T05:34:03.268Z,11.43
2018-07-26T05:36:37.471Z,13.10
2018-07-26T05:39:11.596Z,14.70
2018-07-26T05:41:45.854Z,15.57
2018-07-26T05:44:23.166Z,12.82
2018-07-26T05:46:56.093Z,15.47
2018-07-26T05:49:30.988Z,14.67
2018-07-26T05:52:06.737Z,13.53
2018-07-26T05:54:42.451Z,13.00
2018-07-26T05:57:16.014Z,13.55
2018-07-26T05:59:49.973Z,15.00
2018-07-26T06:02:24.501Z,12.00
2018-07-26T06:05:01.392Z,10.13
2018-07-26T06:07:35.656Z,11.73
2018-07-26T06:10:13.061Z,11.07
2018-07-26T06:12:47.492Z,10.57
2018-07-26T06:15:21.104Z,9.87
2018-07-26T06:17:54.353Z,8.67
2018-07-26T06:20:27.294Z,9.13
2018-07-26T06:23:01.109Z,9.00
2018-07-26T06:25:34.496Z,7.67
2018-07-26T06:28:10.074Z,6.30
2018-07-26T06:30:44.237Z,5.60
2018-07-26T06:33:18.267Z,5.97
2018-07-26T06:35:51.253Z,5.67
2018-07-26T06:38:26.575Z,3.73
2018-07-26T06:40:59.714Z,3.93
2018-07-26T06:43:41.158Z,9.13
2018-07-26T06:46:14.304Z,3.73
2018-07-26T06:48:47.638Z,2.80
2018-07-26T06:51:22.971Z,2.90
2018-07-26T06:53:56.803Z,4.17
2018-07-26T06:56:31.596Z,5.10
2018-07-26T06:59:05.494Z,2.93
2018-07-26T07:01:38.299Z,3.92
2018-07-26T07:04:12.960Z,2.67
2018-07-26T07:06:46.663Z,2.40
2018-07-26T07:09:20.620Z,4.60
2018-07-26T07:11:53.881Z,4.20
2018-07-26T07:14:28.033Z,2.63
2018-07-26T07:17:03.529Z,5.30
2018-07-26T07:19:38.023Z,3.23
2018-07-26T07:22:13.752Z,3.90
2018-07-26T07:24:47.800Z,3.60
2018-07-26T07:27:21.695Z,4.73
2018-07-26T07:30:00.632Z,5.03
2018-07-26T07:32:42.745Z,4.70
2018-07-26T07:35:16.142Z,4.50
2018-07-26T07:37:51.453Z,3.23
2018-07-26T07:40:25.997Z,2.60
2018-07-26T07:42:58.941Z,2.60
2018-07-26T07:45:33.386Z,5.17
2018-07-26T07:48:08.944Z,4.50
2018-07-26T07:50:43.397Z,3.87
2018-07-26T07:53:16.330Z,5.67
2018-07-26T07:55:49.050Z,5.93
2018-07-26T07:58:21.980Z,6.27
2018-07-26T08:00:56.147Z,3.90
2018-07-26T08:03:30.288Z,3.60
2018-07-26T08:06:03.089Z,3.50
2018-07-26T08:08:37.715Z,3.40
2018-07-26T08:11:12.201Z,2.70
2018-07-26T08:13:46.054Z,5.17
2018-07-26T08:16:21.864Z,2.40
2018-07-26T08:18:56.254Z,4.37
2018-07-26T08:21:33.253Z,6.30
2018-07-26T08:24:06.133Z,3.73
2018-07-26T08:26:40.034Z,2.77
2018-07-26T08:29:14.086Z,4.53
2018-07-26T08:31:48.401Z,3.67
2018-07-26T08:37:03.212Z,3.37
2018-07-26T08:39:40.681Z,2.63
2018-07-26T08:42:13.595Z,4.43
2018-07-26T08:44:46.665Z,4.90
2018-07-26T08:47:20.471Z,4.97
2018-07-26T08:49:53.363Z,5.83
2018-07-26T08:52:28.367Z,2.80
2018-07-26T08:55:09.821Z,6.10
2018-07-26T08:57:42.791Z,6.07
2018-07-26T09:00:19.456Z,3.00
2018-07-26T09:02:54.000Z,4.03
2018-07-26T09:05:29.276Z,4.30
2018-07-26T09:08:03.288Z,3.13
2018-07-26T09:10:37.048Z,4.37
2018-07-26T09:13:13.216Z,3.77
2018-07-26T09:15:46.752Z,2.92
2018-07-26T09:18:20.874Z,6.30
2018-07-26T09:20:56.477Z,4.47
2018-07-26T09:23:32.797Z,4.10
2018-07-26T09:26:07.136Z,4.10
2018-07-26T09:28:40.765Z,5.10
2018-07-26T09:31:13.579Z,4.03
2018-07-26T09:33:48.177Z,5.00
2018-07-26T09:36:23.516Z,6.93
2018-07-26T09:38:56.318Z,5.10
2018-07-26T09:41:31.391Z,3.73
2018-07-26T09:44:06.864Z,6.53
2018-07-26T09:46:40.686Z,3.83
2018-07-26T09:49:20.316Z,2.80
2018-07-26T09:51:55.472Z,4.37
2018-07-26T09:54:29.968Z,4.27
2018-07-26T09:57:08.467Z,5.63
2018-07-26T09:59:41.292Z,7.00
2018-07-26T10:02:14.956Z,7.33
2018-07-26T10:04:50.772Z,3.33
2018-07-26T10:07:29.067Z,4.90
2018-07-26T10:10:10.816Z,3.60
2018-07-26T10:12:48.749Z,3.33
2018-07-26T10:15:23.650Z,3.90
2018-07-26T10:18:00.764Z,6.20
2018-07-26T10:20:45.739Z,7.47
2018-07-26T10:23:19.628Z,3.10
2018-07-26T10:27:14.100Z,5.47
2018-07-26T10:29:49.064Z,4.30
2018-07-26T10:32:24.608Z,3.87
2018-07-26T10:34:57.544Z,3.87
2018-07-26T10:37:32.692Z,3.67
2018-07-26T10:40:08.005Z,7.07
2018-07-26T10:42:41.726Z,4.37
2018-07-26T10:45:20.589Z,4.27
2018-07-26T10:48:00.817Z,7.53
2018-07-26T10:50:37.020Z,2.50
2018-07-26T10:53:10.654Z,4.60
2018-07-26T10:55:44.287Z,3.50
2018-07-26T10:58:21.866Z,4.57
2018-07-26T11:00:54.806Z,2.93
2018-07-26T11:03:31.191Z,5.57
2018-07-26T11:06:05.411Z,4.93
2018-07-26T11:08:41.358Z,4.40
2018-07-26T11:11:15.345Z,3.50
2018-07-26T11:13:49.975Z,6.53
2018-07-26T11:16:27.653Z,3.83
2018-07-26T11:19:04.022Z,2.47
2018-07-26T11:21:39.598Z,5.62
2018-07-26T11:24:12.814Z,4.17
2018-07-26T11:26:48.722Z,4.97
2018-07-26T11:29:23.898Z,2.62
2018-07-26T11:31:57.682Z,4.10
2018-07-26T11:34:33.166Z,4.00
2018-07-26T11:37:08.584Z,3.63
2018-07-26T11:39:44.809Z,3.60
2018-07-26T11:42:19.021Z,2.63
2018-07-26T11:44:55.562Z,3.58
2018-07-26T11:47:34.728Z,4.20
2018-07-26T11:50:10.302Z,6.77
2018-07-26T11:52:43.151Z,3.85
2018-07-26T11:55:19.748Z,3.75
2018-07-26T11:57:53.677Z,2.60
2018-07-26T12:00:29.461Z,3.40
2018-07-26T12:03:08.806Z,4.93
2018-07-26T12:05:45.906Z,3.28
2018-07-26T12:08:22.524Z,4.45
2018-07-26T12:10:58.552Z,5.32
2018-07-26T12:13:33.395Z,2.92
2018-07-26T12:16:08.205Z,2.62
2018-07-26T12:18:42.119Z,2.75
2018-07-26T12:21:15.674Z,4.40
2018-07-26T12:23:51.229Z,4.32
2018-07-26T12:26:25.197Z,2.47
2018-07-26T12:28:59.265Z,6.10
2018-07-26T12:31:34.312Z,4.40
2018-07-26T12:34:08.948Z,4.95
2018-07-26T12:36:43.503Z,4.50
2018-07-26T12:39:18.010Z,4.43
2018-07-26T12:41:53.325Z,4.32
2018-07-26T12:44:27.544Z,8.30
2018-07-26T12:47:02.689Z,2.83
2018-07-26T12:49:35.618Z,5.30
2018-07-26T12:52:19.355Z,3.55
2018-07-26T12:54:53.285Z,3.20
2018-07-26T12:57:27.727Z,3.87
2018-07-26T13:00:03.875Z,2.87
2018-07-26T13:02:40.104Z,3.50
2018-07-26T13:05:15.606Z,7.45
2018-07-26T13:07:51.029Z,5.65
2018-07-26T13:10:25.125Z,3.42
2018-07-26T13:12:58.033Z,4.90
2018-07-26T13:15:31.744Z,5.03
2018-07-26T13:18:06.758Z,6.62
2018-07-26T13:20:40.998Z,4.40
2018-07-26T13:23:15.198Z,3.17
2018-07-26T13:25:49.166Z,5.13
2018-07-26T13:28:22.769Z,3.90
2018-07-26T13:30:57.168Z,2.60
2018-07-26T13:33:33.235Z,3.55
2018-07-26T13:36:06.409Z,2.13
2018-07-26T13:38:39.489Z,2.33
2018-07-26T13:41:13.870Z,2.33
2018-07-26T13:43:46.926Z,2.97
2018-07-26T13:46:22.667Z,6.83
2018-07-26T13:48:57.306Z,5.25
2018-07-26T13:51:30.454Z,2.50
2018-07-26T13:54:06.399Z,2.20
2018-07-26T13:56:42.327Z,4.30
2018-07-26T13:59:19.059Z,3.27
2018-07-26T14:01:53.575Z,4.07
2018-07-26T14:04:28.681Z,4.70
2018-07-26T14:07:05.373Z,2.50
2018-07-26T14:09:40.381Z,6.40
2018-07-26T14:12:15.503Z,2.37
2018-07-26T14:14:49.488Z,2.23
2018-07-26T14:17:23.955Z,4.28
2018-07-26T14:19:57.965Z,2.15
2018-07-26T14:22:32.864Z,4.03
2018-07-26T14:25:07.676Z,2.80
2018-07-26T14:27:43.277Z,4.53
2018-07-26T14:30:19.381Z,3.15
2018-07-26T14:32:54.860Z,2.90
2018-07-26T14:35:37.452Z,3.13
2018-07-26T14:38:11.748Z,2.40
2018-07-26T14:40:46.298Z,2.10
2018-07-26T14:43:20.785Z,2.30
2018-07-26T14:45:53.759Z,3.12
2018-07-26T14:48:31.453Z,3.47
2018-07-26T14:51:08.362Z,2.67
2018-07-26T14:53:43.880Z,2.05
2018-07-26T14:56:20.917Z,2.85
2018-07-26T14:58:56.237Z,2.10
2018-07-26T15:01:32.751Z,4.07
2018-07-26T15:04:06.544Z,6.27
2018-07-26T15:06:49.513Z,2.47
2018-07-26T15:09:23.478Z,3.13
2018-07-26T15:11:58.337Z,6.00
2018-07-26T15:14:33.117Z,2.00
2018-07-26T15:17:08.550Z,3.30
2018-07-26T15:19:42.000Z,4.67
2018-07-26T15:22:14.877Z,5.78
2018-07-26T15:24:51.836Z,3.07
2018-07-26T15:27:27.192Z,2.87
2018-07-26T15:30:00.254Z,2.53
2018-07-26T15:32:39.568Z,3.87
2018-07-26T15:35:13.561Z,2.67
2018-07-26T15:37:47.451Z,2.53
2018-07-26T15:40:21.293Z,4.90
2018-07-26T15:42:55.279Z,6.63
2018-07-26T15:45:28.622Z,4.10
2018-07-26T15:48:05.465Z,2.50
2018-07-26T15:50:39.903Z,4.70
2018-07-26T15:53:14.578Z,3.60
2018-07-26T15:55:51.058Z,5.33
2018-07-26T15:58:25.206Z,3.03
2018-07-26T16:00:58.708Z,4.20
2018-07-26T16:03:34.397Z,4.05
2018-07-26T16:06:19.904Z,4.10
2018-07-26T16:08:53.907Z,3.37
2018-07-26T16:11:28.022Z,4.37
2018-07-26T16:14:03.897Z,3.53
2018-07-26T16:16:38.733Z,2.67
2018-07-26T16:19:12.754Z,2.53
2018-07-26T16:21:47.584Z,4.67
2018-07-26T16:24:22.904Z,2.20
2018-07-26T16:26:58.343Z,2.33
2018-07-26T16:29:33.890Z,3.93
2018-07-26T16:32:08.749Z,2.47
2018-07-26T16:34:46.760Z,4.30
2018-07-26T16:37:20.598Z,1.97
2018-07-26T16:39:53.600Z,3.97
2018-07-26T16:42:27.509Z,3.00
2018-07-26T16:45:04.865Z,4.60
2018-07-26T16:47:38.527Z,2.00
2018-07-26T16:50:12.229Z,2.33
2018-07-26T16:52:46.884Z,2.07
2018-07-26T16:55:23.143Z,2.90
2018-07-26T16:57:58.365Z,3.47
2018-07-26T17:00:34.097Z,2.83
2018-07-26T17:03:09.475Z,1.80
2018-07-26T17:05:44.186Z,1.80
2018-07-26T17:08:16.985Z,3.13
2018-07-26T17:10:50.524Z,1.60
2018-07-26T17:13:24.926Z,4.30
2018-07-26T17:15:58.538Z,8.50
2018-07-26T17:18:32.113Z,5.30
2018-07-26T17:21:07.523Z,3.63
2018-07-26T17:23:43.895Z,6.03
2018-07-26T17:26:19.782Z,4.83
2018-07-26T17:29:03.830Z,5.07
2018-07-26T17:31:42.609Z,5.57
2018-07-26T17:34:17.175Z,9.13
2018-07-26T17:36:51.700Z,11.40
2018-07-26T17:39:27.105Z,9.03
2018-07-26T17:42:00.646Z,4.30
2018-07-26T17:44:33.466Z,2.63
2018-07-26T17:47:15.852Z,2.67
2018-07-26T17:49:50.317Z,2.47
2018-07-26T17:52:25.004Z,3.40
2018-07-26T17:55:00.692Z,2.27
2018-07-26T17:57:36.322Z,3.50
2018-07-26T18:00:15.085Z,3.47
2018-07-26T18:02:49.677Z,3.97
2018-07-26T18:05:27.460Z,5.47
2018-07-26T18:08:01.815Z,3.13
2018-07-26T18:10:34.600Z,3.13
2018-07-26T18:13:11.360Z,3.70
2018-07-26T18:15:46.230Z,5.20
2018-07-26T18:18:19.591Z,7.63
2018-07-26T18:20:54.218Z,12.90
2018-07-26T18:23:27.748Z,2.83
2018-07-26T18:26:02.148Z,3.57
2018-07-26T18:28:35.045Z,3.03
2018-07-26T18:31:12.086Z,7.33
2018-07-26T18:33:49.336Z,22.75
2018-07-26T18:36:23.068Z,3.17
2018-07-26T18:38:55.898Z,3.70
2018-07-26T18:41:30.845Z,4.17
2018-07-26T18:44:04.140Z,5.93
2018-07-26T18:46:41.277Z,4.03
2018-07-26T18:49:15.342Z,2.87
2018-07-26T18:51:48.253Z,3.17
2018-07-26T18:54:22.306Z,2.80
2018-07-26T18:56:55.929Z,3.00
2018-07-26T18:59:29.814Z,2.50
2018-07-26T19:02:02.811Z,6.63
2018-07-26T19:04:37.109Z,6.87
2018-07-26T19:07:11.120Z,5.13
2018-07-26T19:09:43.995Z,6.43
2018-07-26T19:12:17.224Z,4.07
2018-07-26T19:14:50.872Z,5.47
2018-07-26T19:17:24.681Z,6.03
2018-07-26T19:19:59.845Z,9.67
2018-07-26T19:22:33.535Z,7.37
2018-07-26T19:25:08.771Z,4.37
2018-07-26T19:27:43.953Z,2.23
2018-07-26T19:30:17.545Z,4.72
2018-07-26T19:32:50.524Z,1.97
2018-07-26T19:35:27.522Z,4.67
2018-07-26T19:38:01.877Z,4.07
2018-07-26T19:40:37.294Z,6.10
2018-07-26T19:43:13.870Z,3.00
2018-07-26T19:45:51.141Z,4.70
2018-07-26T19:48:26.337Z,3.73
2018-07-26T19:50:59.776Z,4.03
2018-07-26T19:53:35.400Z,4.30
2018-07-26T19:56:15.574Z,5.83
2018-07-26T19:58:51.728Z,5.17
2018-07-26T20:01:27.206Z,3.40
2018-07-26T20:04:03.176Z,4.50
2018-07-26T20:06:37.710Z,5.83
2018-07-26T20:09:11.833Z,3.67
2018-07-26T20:11:46.925Z,4.67
2018-07-26T20:14:23.406Z,5.57
2018-07-26T20:16:59.937Z,5.13
2018-07-26T20:19:36.521Z,4.17
2018-07-26T20:22:10.887Z,4.10
2018-07-26T20:24:44.212Z,3.13
2018-07-26T20:27:18.526Z,4.67
2018-07-26T20:29:51.358Z,3.97
2018-07-26T20:32:26.575Z,3.77
2018-07-26T20:35:00.156Z,12.88
2018-07-26T20:37:37.859Z,5.90
2018-07-26T20:40:15.262Z,7.87
2018-07-26T20:42:50.477Z,7.03
2018-07-26T20:45:27.181Z,3.27
2018-07-26T20:48:00.240Z,3.57
2018-07-26T20:50:33.203Z,3.67
2018-07-26T20:53:06.679Z,11.40
2018-07-26T20:55:41.566Z,12.70
2018-07-26T20:58:18.027Z,6.23
2018-07-26T21:00:52.143Z,4.53
2018-07-26T21:03:26.279Z,5.77
2018-07-26T21:06:06.215Z,5.00
2018-07-26T21:08:40.800Z,4.53
2018-07-26T21:11:21.816Z,3.83
2018-07-26T21:13:57.716Z,2.90
2018-07-26T21:16:36.569Z,3.10
2018-07-26T21:19:16.615Z,4.00
2018-07-26T21:21:57.847Z,2.80
2018-07-26T21:24:40.112Z,3.13
2018-07-26T21:27:26.432Z,3.60
2018-07-26T21:30:08.513Z,8.17
2018-07-26T21:32:54.695Z,13.53
2018-07-26T21:35:33.098Z,4.70
2018-07-26T21:38:14.676Z,6.00
2018-07-26T21:40:53.675Z,4.37
2018-07-26T21:43:27.655Z,9.70
2018-07-26T21:46:05.107Z,5.87
2018-07-26T21:48:42.521Z,5.90
2018-07-26T21:51:22.040Z,4.23
2018-07-26T21:53:56.707Z,3.37
2018-07-26T21:56:31.230Z,3.77
2018-07-26T21:59:05.744Z,4.90
2018-07-26T22:01:40.321Z,3.83
2018-07-26T22:04:14.529Z,4.20
2018-07-26T22:06:49.507Z,3.43
2018-07-26T22:09:24.650Z,4.37
2018-07-26T22:12:03.087Z,3.93
2018-07-26T22:14:37.633Z,2.80
2018-07-26T22:17:11.549Z,4.70
2018-07-26T22:19:47.685Z,2.50
2018-07-26T22:22:24.151Z,3.23
2018-07-26T22:25:05.666Z,6.67
2018-07-26T22:27:43.651Z,13.30
2018-07-26T22:30:18.997Z,18.52
2018-07-26T22:32:54.369Z,11.57
2018-07-26T22:35:28.253Z,13.33
2018-07-26T22:38:01.617Z,5.05
2018-07-26T22:40:36.283Z,6.43
2018-07-26T22:43:13.553Z,6.90
2018-07-26T22:45:51.907Z,6.10
2018-07-26T22:48:24.768Z,6.37
2018-07-26T22:50:58.796Z,2.70
2018-07-26T22:53:32.758Z,7.03
2018-07-26T22:56:05.872Z,4.80
2018-07-26T22:58:39.728Z,8.17
2018-07-26T23:01:15.796Z,9.67
2018-07-26T23:03:48.620Z,3.03
2018-07-26T23:06:28.245Z,3.53
2018-07-26T23:09:03.693Z,5.10
2018-07-26T23:11:41.211Z,5.50
2018-07-26T23:14:14.164Z,3.37
2018-07-26T23:16:48.771Z,3.70
2018-07-26T23:19:22.380Z,6.57
2018-07-26T23:21:56.133Z,2.97
2018-07-26T23:24:30.195Z,3.00
2018-07-26T23:27:04.622Z,4.20
2018-07-26T23:29:37.381Z,5.70
2018-07-26T23:32:12.701Z,5.63
2018-07-26T23:34:46.319Z,3.23
2018-07-26T23:37:20.508Z,5.53
2018-07-26T23:39:54.933Z,4.20
2018-07-26T23:42:28.494Z,4.30
2018-07-26T23:45:04.630Z,4.23
2018-07-26T23:47:45.789Z,4.27
2018-07-26T23:50:23.501Z,7.10
2018-07-26T23:53:16.796Z,7.37
2018-07-26T23:55:52.880Z,5.13
2018-07-26T23:58:27.141Z,3.47
